Time,TemperatureF,DewpointF,PressureIn,WindDirection,WindDirectionDegrees,WindSpeedMPH,WindSpeedGustMPH,Humidity,HourlyPrecipIn,Conditions,Clouds,dailyrainin,SoftwareType,DateUTC
2013-04-02 00:02:00,26.2,5.2,30.21,North,0,0.0,0.0,40,0.00,CLR,OVC,0.00,WeatherDisplay:10.37,2013-04-02 05:02:00,
2013-04-02 00:07:00,26.1,2.7,30.21,North,0,0.0,0.0,36,0.00,CLR,OVC,0.00,WeatherDisplay:10.37,2013-04-02 05:07:00,
2013-04-02 00:12:00,26.1,1.5,30.21,North,0,0.0,0.0,34,0.00,CLR,OVC,0.00,WeatherDisplay:10.37,2013-04-02 05:12:00,
2013-04-02 00:17:00,25.9,0.0,30.21,North,0,0.0,0.0,32,0.00,CLR,OVC,0.00,WeatherDisplay:10.37,2013-04-02 05:17:00,
2013-04-02 00:22:00,25.9,-0.7,30.21,North,0,0.0,0.0,31,0.00,CLR,OVC,0.00,WeatherDisplay:10.37,2013-04-02 05:22:00,
2013-04-02 00:27:00,25.9,-1.4,30.21,North,0,0.0,0.0,30,0.00,CLR,OVC,0.00,WeatherDisplay:10.37,2013-04-02 05:27:00,
2013-04-02 00:32:00,26.1,-3.4,30.21,North,0,0.0,0.0,27,0.00,CLR,OVC,0.00,WeatherDisplay:10.37,2013-04-02 05:32:00,
2013-04-02 00:37:00,26.2,-2.5,30.21,North,0,0.0,0.0,28,0.00,CLR,OVC,0.00,WeatherDisplay:10.37,2013-04-02 05:37:00,
2013-04-02 00:42:00,26.2,-1.8,30.21,North,0,0.0,0.0,29,0.00,CLR,OVC,0.00,WeatherDisplay:10.37,2013-04-02 05:42:00,
2013-04-02 00:47:00,26.6,1.3,30.21,North,0,0.0,0.0,33,0.00,CLR,OVC,0.00,WeatherDisplay:10.37,2013-04-02 05:47:00,
2013-04-02 00:52:00,26.6,0.7,30.21,North,0,0.0,0.0,32,0.00,CLR,OVC,0.00,WeatherDisplay:10.37,2013-04-02 05:52:00,
2013-04-02 00:57:00,26.6,0.7,30.21,North,0,0.0,0.0,32,0.00,CLR,OVC,0.00,WeatherDisplay:10.37,2013-04-02 05:57:00,
2013-04-02 01:02:00,26.4,-0.2,30.21,North,0,0.0,0.0,31,0.00,CLR,OVC,0.00,WeatherDisplay:10.37,2013-04-02 06:02:00,
2013-04-02 01:08:00,26.2,-1.0,30.22,North,0,0.0,0.0,30,0.00,CLR,OVC,0.00,WeatherDisplay:10.37,2013-04-02 06:08:00,
2013-04-02 01:13:00,25.9,-1.4,30.22,North,0,0.0,0.0,30,0.00,CLR,OVC,0.00,WeatherDisplay:10.37,2013-04-02 06:13:00,
2013-04-02 01:18:00,25.7,-1.5,30.22,North,0,0.0,0.0,30,0.00,CLR,OVC,0.00,WeatherDisplay:10.37,2013-04-02 06:18:00,
2013-04-02 01:23:00,25.5,-2.4,30.22,North,0,0.0,0.0,29,0.00,CLR,OVC,0.00,WeatherDisplay:10.37,2013-04-02 06:23:00,
2013-04-02 01:28:00,25.5,-3.9,30.22,North,0,0.0,0.0,27,0.00,CLR,OVC,0.00,WeatherDisplay:10.37,2013-04-02 06:28:00,
2013-04-02 01:33:00,25.5,-6.3,30.22,North,0,0.0,0.0,24,0.00,CLR,OVC,0.00,WeatherDisplay:10.37,2013-04-02 06:33:00,
2013-04-02 01:38:00,25.5,-10.1,30.22,North,0,0.0,0.0,20,0.00,CLR,OVC,0.00,WeatherDisplay:10.37,2013-04-02 06:38:00,
2013-04-02 01:43:00,25.3,-10.2,30.22,North,0,0.0,0.0,20,0.00,CLR,OVC,0.00,WeatherDisplay:10.37,2013-04-02 06:43:00,
2013-04-02 01:48:00,25.3,-14.7,30.22,North,0,0.0,0.0,16,0.00,CLR,OVC,0.00,WeatherDisplay:10.37,2013-04-02 06:48:00,
2013-04-02 01:53:00,25.3,-14.7,30.22,North,0,0.0,0.0,16,0.00,CLR,OVC,0.00,WeatherDisplay:10.37,2013-04-02 06:53:00,
2013-04-02 01:58:00,25.3,-13.5,30.22,North,0,0.0,0.0,17,0.00,CLR,OVC,0.00,WeatherDisplay:10.37,2013-04-02 06:58:00,
2013-04-02 02:03:00,25.3,-10.2,30.22,North,0,0.0,0.0,20,0.00,CLR,OVC,0.00,WeatherDisplay:10.37,2013-04-02 07:03:00,
2013-04-02 02:08:00,25.2,-7.5,30.22,North,0,0.0,0.0,23,0.00,CLR,OVC,0.00,WeatherDisplay:10.37,2013-04-02 07:08:00,
2013-04-02 02:13:00,25.0,-9.5,30.22,North,0,0.0,0.0,21,0.00,CLR,OVC,0.00,WeatherDisplay:10.37,2013-04-02 07:13:00,
2013-04-02 02:18:00,24.8,-10.7,30.22,North,0,0.0,0.0,20,0.00,CLR,OVC,0.00,WeatherDisplay:10.37,2013-04-02 07:18:00,
2013-04-02 02:23:00,24.8,-12.8,30.22,North,0,0.0,0.0,18,0.00,CLR,OVC,0.00,WeatherDisplay:10.37,2013-04-02 07:23:00,
2013-04-02 02:28:00,25.2,-16.1,30.22,North,0,0.0,0.0,15,0.00,CLR,OVC,0.00,WeatherDisplay:10.37,2013-04-02 07:28:00,
2013-04-02 02:33:00,25.5,-10.1,30.22,North,0,0.0,0.0,20,0.00,CLR,OVC,0.00,WeatherDisplay:10.37,2013-04-02 07:33:00,
2013-04-02 02:38:00,25.7,-8.0,30.22,North,0,0.0,0.0,22,0.00,CLR,OVC,0.00,WeatherDisplay:10.37,2013-04-02 07:38:00,
2013-04-02 02:43:00,25.9,-4.4,30.22,North,0,0.0,0.0,26,0.00,CLR,OVC,0.00,WeatherDisplay:10.37,2013-04-02 07:43:00,
2013-04-02 02:48:00,25.9,-2.8,30.22,North,0,0.0,0.0,28,0.00,CLR,OVC,0.00,WeatherDisplay:10.37,2013-04-02 07:48:00,
2013-04-02 02:53:00,25.9,-1.4,30.22,North,0,0.0,0.0,30,0.00,CLR,OVC,0.00,WeatherDisplay:10.37,2013-04-02 07:53:00,
2013-04-02 02:58:00,25.7,-3.7,30.22,North,0,0.0,0.0,27,0.00,CLR,OVC,0.00,WeatherDisplay:10.37,2013-04-02 07:58:00,
2013-04-02 03:03:00,25.7,-4.5,30.21,North,0,0.0,0.0,26,0.00,CLR,OVC,0.00,WeatherDisplay:10.37,2013-04-02 08:03:00,
2013-04-02 03:08:00,25.7,-4.5,30.21,North,0,0.0,0.0,26,0.00,CLR,OVC,0.00,WeatherDisplay:10.37,2013-04-02 08:08:00,
2013-04-02 03:13:00,25.7,-3.7,30.21,North,0,0.0,0.0,27,0.00,CLR,OVC,0.00,WeatherDisplay:10.37,2013-04-02 08:13:00,
2013-04-02 03:18:00,25.7,-3.7,30.21,North,0,0.0,0.0,27,0.00,CLR,OVC,0.00,WeatherDisplay:10.37,2013-04-02 08:18:00,
2013-04-02 03:23:00,25.3,-6.5,30.21,North,0,0.0,0.0,24,0.00,CLR,OVC,0.00,WeatherDisplay:10.37,2013-04-02 08:23:00,
2013-04-02 03:28:00,25.2,-7.5,30.21,North,0,0.0,0.0,23,0.00,CLR,OVC,0.00,WeatherDisplay:10.37,2013-04-02 08:28:00,
2013-04-02 03:33:00,25.0,-7.7,30.21,North,0,0.0,0.0,23,0.00,CLR,OVC,0.00,WeatherDisplay:10.37,2013-04-02 08:33:00,
2013-04-02 03:38:00,24.8,-9.7,30.21,North,0,0.0,0.0,21,0.00,CLR,OVC,0.00,WeatherDisplay:10.37,2013-04-02 08:38:00,
2013-04-02 03:43:00,24.8,-10.7,30.21,North,0,0.0,0.0,20,0.00,CLR,OVC,0.00,WeatherDisplay:10.37,2013-04-02 08:43:00,
2013-04-02 03:48:00,24.6,-14.1,30.21,North,0,0.0,0.0,17,0.00,CLR,OVC,0.00,WeatherDisplay:10.37,2013-04-02 08:48:00,
2013-04-02 03:53:00,24.4,-15.4,30.21,North,0,0.0,0.0,16,0.00,CLR,OVC,0.00,WeatherDisplay:10.37,2013-04-02 08:53:00,
2013-04-02 03:58:00,24.3,-16.9,30.21,North,0,0.0,0.0,15,0.00,CLR,OVC,0.00,WeatherDisplay:10.37,2013-04-02 08:58:00,
2013-04-02 04:03:00,24.3,-16.9,30.21,North,0,0.0,0.0,15,0.00,CLR,OVC,0.00,WeatherDisplay:10.37,2013-04-02 09:03:00,
2013-04-02 04:08:00,24.3,-16.9,30.21,North,0,0.0,0.0,15,0.00,CLR,OVC,0.00,WeatherDisplay:10.37,2013-04-02 09:08:00,
2013-04-02 04:13:00,24.4,-15.4,30.21,North,0,0.0,0.0,16,0.00,CLR,OVC,0.00,WeatherDisplay:10.37,2013-04-02 09:13:00,
2013-04-02 04:18:00,24.4,-15.4,30.21,North,0,0.0,0.0,16,0.00,CLR,OVC,0.00,WeatherDisplay:10.37,2013-04-02 09:18:00,
2013-04-02 04:23:00,24.4,-16.7,30.21,North,0,0.0,0.0,15,0.00,CLR,OVC,0.00,WeatherDisplay:10.37,2013-04-02 09:23:00,
2013-04-02 04:28:00,24.4,-15.4,30.21,North,0,0.0,0.0,16,0.00,CLR,OVC,0.00,WeatherDisplay:10.37,2013-04-02 09:28:00,
2013-04-02 04:33:00,24.4,-14.2,30.21,North,0,0.0,0.0,17,0.00,CLR,OVC,0.00,WeatherDisplay:10.37,2013-04-02 09:33:00,
2013-04-02 04:38:00,24.3,-14.4,30.21,North,0,0.0,0.0,17,0.00,CLR,OVC,0.00,WeatherDisplay:10.37,2013-04-02 09:38:00,
2013-04-02 04:43:00,24.1,-14.5,30.22,North,0,0.0,0.0,17,0.00,CLR,OVC,0.00,WeatherDisplay:10.37,2013-04-02 09:43:00,
2013-04-02 04:48:00,24.1,-13.4,30.21,North,0,0.0,0.0,18,0.00,CLR,OVC,0.00,WeatherDisplay:10.37,2013-04-02 09:48:00,
2013-04-02 04:53:00,23.9,-13.5,30.21,North,0,0.0,0.0,18,0.00,CLR,OVC,0.00,WeatherDisplay:10.37,2013-04-02 09:53:00,
2013-04-02 04:58:00,23.9,-12.5,30.21,North,0,0.0,0.0,19,0.00,CLR,OVC,0.00,WeatherDisplay:10.37,2013-04-02 09:58:00,
2013-04-02 05:03:00,23.9,-11.4,30.22,North,0,0.0,0.0,20,0.00,CLR,OVC,0.00,WeatherDisplay:10.37,2013-04-02 10:03:00,
2013-04-02 05:08:00,23.7,-11.6,30.21,North,0,0.0,0.0,20,0.00,CLR,OVC,0.00,WeatherDisplay:10.37,2013-04-02 10:08:00,
2013-04-02 05:13:00,23.5,-13.8,30.22,North,0,0.0,0.0,18,0.00,CLR,OVC,0.00,WeatherDisplay:10.37,2013-04-02 10:13:00,
2013-04-02 05:18:00,23.4,-17.6,30.22,North,0,0.0,0.0,15,0.00,CLR,OVC,0.00,WeatherDisplay:10.37,2013-04-02 10:18:00,
2013-04-02 05:24:00,23.4,-21.9,30.22,North,0,0.0,0.0,12,0.00,CLR,OVC,0.00,WeatherDisplay:10.37,2013-04-02 10:24:00,
2013-04-02 05:29:00,23.4,-25.4,30.22,North,0,0.0,0.0,10,0.00,CLR,OVC,0.00,WeatherDisplay:10.37,2013-04-02 10:29:00,
2013-04-02 05:34:00,23.2,-34.8,30.22,North,0,0.0,0.0,6,0.00,CLR,OVC,0.00,WeatherDisplay:10.37,2013-04-02 10:34:00,
2013-04-02 05:39:00,23.0,-64.4,30.22,North,0,0.0,0.0,1,0.00,CLR,OVC,0.00,WeatherDisplay:10.37,2013-04-02 10:39:00,
2013-04-02 05:44:00,23.0,-64.4,30.22,North,0,0.0,0.0,1,0.00,CLR,OVC,0.00,WeatherDisplay:10.37,2013-04-02 10:44:00,
2013-04-02 05:49:00,23.0,-53.6,30.22,North,0,0.0,0.0,2,0.00,CLR,OVC,0.00,WeatherDisplay:10.37,2013-04-02 10:49:00,
2013-04-02 05:54:00,23.0,-27.6,30.22,North,0,0.0,0.0,9,0.00,CLR,OVC,0.00,WeatherDisplay:10.37,2013-04-02 10:54:00,
2013-04-02 05:59:00,23.0,-22.2,30.22,North,0,0.0,0.0,12,0.00,CLR,OVC,0.00,WeatherDisplay:10.37,2013-04-02 10:59:00,
2013-04-02 06:04:00,23.0,-19.2,30.23,North,0,0.0,0.0,14,0.00,CLR,OVC,0.00,WeatherDisplay:10.37,2013-04-02 11:04:00,
2013-04-02 06:09:00,23.0,-20.7,30.23,North,0,0.0,0.0,13,0.00,CLR,OVC,0.00,WeatherDisplay:10.37,2013-04-02 11:09:00,
2013-04-02 06:14:00,23.0,-23.8,30.23,North,0,0.0,0.0,11,0.00,CLR,OVC,0.00,WeatherDisplay:10.37,2013-04-02 11:14:00,
2013-04-02 06:19:00,23.2,-27.5,30.23,North,0,0.0,0.0,9,0.00,CLR,OVC,0.00,WeatherDisplay:10.37,2013-04-02 11:19:00,
2013-04-02 06:24:00,23.2,-34.8,30.23,North,0,0.0,0.0,6,0.00,CLR,OVC,0.00,WeatherDisplay:10.37,2013-04-02 11:24:00,
2013-04-02 06:29:00,23.0,-42.1,30.23,North,0,0.0,0.0,4,0.00,CLR,OVC,0.00,WeatherDisplay:10.37,2013-04-02 11:29:00,
2013-04-02 06:34:00,23.0,-38.2,30.23,North,0,0.0,0.0,5,0.00,CLR,OVC,0.00,WeatherDisplay:10.37,2013-04-02 11:34:00,
2013-04-02 06:39:00,23.2,-38.1,30.23,North,0,0.0,0.0,5,0.00,CLR,OVC,0.00,WeatherDisplay:10.37,2013-04-02 11:39:00,
2013-04-02 06:44:00,23.0,-35.0,30.23,North,0,0.0,0.0,6,0.00,CLR,OVC,0.00,WeatherDisplay:10.37,2013-04-02 11:44:00,
2013-04-02 06:49:00,23.0,-35.0,30.23,North,0,0.0,0.0,6,0.00,CLR,OVC,0.00,WeatherDisplay:10.37,2013-04-02 11:49:00,
2013-04-02 06:54:00,23.2,-34.8,30.23,North,0,0.0,0.0,6,0.00,CLR,OVC,0.00,WeatherDisplay:10.37,2013-04-02 11:54:00,
2013-04-02 06:59:00,23.2,-32.1,30.23,North,0,0.0,0.0,7,0.00,CLR,OVC,0.00,WeatherDisplay:10.37,2013-04-02 11:59:00,
2013-04-02 07:04:00,23.2,-27.5,30.24,North,0,0.0,0.0,9,0.00,CLR,OVC,0.00,WeatherDisplay:10.37,2013-04-02 12:04:00,
2013-04-02 07:09:00,23.2,-25.5,30.24,North,0,0.0,0.0,10,0.00,CLR,OVC,0.00,WeatherDisplay:10.37,2013-04-02 12:09:00,
2013-04-02 07:14:00,23.0,-23.8,30.24,North,0,0.0,0.0,11,0.00,CLR,OVC,0.00,WeatherDisplay:10.37,2013-04-02 12:14:00,
2013-04-02 07:19:00,23.2,-22.0,30.24,North,0,0.0,0.0,12,0.00,CLR,OVC,0.00,WeatherDisplay:10.37,2013-04-02 12:19:00,
2013-04-02 07:24:00,23.0,-23.8,30.25,North,0,0.0,0.0,11,0.00,CLR,OVC,0.00,WeatherDisplay:10.37,2013-04-02 12:24:00,
2013-04-02 07:29:00,23.0,-25.6,30.25,North,0,0.0,0.0,10,0.00,CLR,OVC,0.00,WeatherDisplay:10.37,2013-04-02 12:29:00,
2013-04-02 07:34:00,23.2,-41.9,30.25,North,0,0.0,0.0,4,0.00,CLR,OVC,0.00,WeatherDisplay:10.37,2013-04-02 12:34:00,
2013-04-02 07:39:00,23.4,-64.1,30.25,North,0,0.0,0.0,1,0.00,CLR,OVC,0.00,WeatherDisplay:10.37,2013-04-02 12:39:00,
2013-04-02 07:44:00,23.4,-64.1,30.25,North,0,0.0,0.0,1,0.00,CLR,OVC,0.00,WeatherDisplay:10.37,2013-04-02 12:44:00,
2013-04-02 07:49:00,23.7,-63.9,30.26,North,0,0.0,0.0,1,0.00,CLR,OVC,0.00,WeatherDisplay:10.37,2013-04-02 12:49:00,
2013-04-02 07:54:00,23.9,-63.8,30.26,North,0,0.0,0.0,1,0.00,CLR,OVC,0.00,WeatherDisplay:10.37,2013-04-02 12:54:00,
2013-04-02 07:59:00,24.1,-63.7,30.26,North,0,0.0,0.0,1,0.00,CLR,OVC,0.00,WeatherDisplay:10.37,2013-04-02 12:59:00,
2013-04-02 08:04:00,24.1,-63.7,30.26,North,0,0.0,0.0,1,0.00,CLR,OVC,0.00,WeatherDisplay:10.37,2013-04-02 13:04:00,
2013-04-02 08:09:00,24.6,-63.3,30.26,North,0,0.0,0.0,1,0.00,CLR,OVC,0.00,WeatherDisplay:10.37,2013-04-02 13:09:00,
2013-04-02 08:14:00,25.2,-63.0,30.26,North,0,0.0,0.0,1,0.00,CLR,OVC,0.00,WeatherDisplay:10.37,2013-04-02 13:14:00,
2013-04-02 08:19:00,25.5,-62.8,30.26,North,0,0.0,0.0,1,0.00,CLR,OVC,0.00,WeatherDisplay:10.37,2013-04-02 13:19:00,
2013-04-02 08:24:00,25.7,-62.6,30.27,North,0,0.0,0.0,1,0.00,CLR,OVC,0.00,WeatherDisplay:10.37,2013-04-02 13:24:00,
2013-04-02 08:29:00,25.9,-62.5,30.27,North,0,0.0,0.0,1,0.00,CLR,OVC,0.00,WeatherDisplay:10.37,2013-04-02 13:29:00,
2013-04-02 08:34:00,26.1,-62.4,30.26,North,0,0.0,0.0,1,0.00,CLR,OVC,0.00,WeatherDisplay:10.37,2013-04-02 13:34:00,
2013-04-02 08:39:00,26.2,-51.4,30.26,North,0,0.0,0.0,2,0.00,CLR,OVC,0.00,WeatherDisplay:10.37,2013-04-02 13:39:00,
2013-04-02 08:44:00,26.2,-51.4,30.26,North,0,0.0,0.0,2,0.00,CLR,OVC,0.00,WeatherDisplay:10.37,2013-04-02 13:44:00,
2013-04-02 08:49:00,26.4,-51.3,30.26,North,0,0.0,0.0,2,0.00,CLR,OVC,0.00,WeatherDisplay:10.37,2013-04-02 13:49:00,
2013-04-02 08:54:00,26.8,-62.0,30.26,North,0,0.0,0.0,1,0.00,CLR,OVC,0.00,WeatherDisplay:10.37,2013-04-02 13:54:00,
2013-04-02 08:59:00,27.1,-26.6,30.26,North,0,0.0,0.0,8,0.00,CLR,OVC,0.00,WeatherDisplay:10.37,2013-04-02 13:59:00,
2013-04-02 09:04:00,27.3,-15.7,30.26,North,0,0.0,0.0,14,0.00,CLR,OVC,0.00,WeatherDisplay:10.37,2013-04-02 14:04:00,
2013-04-02 09:09:00,27.5,-7.4,30.27,North,0,0.0,0.0,21,0.00,CLR,OVC,0.00,WeatherDisplay:10.37,2013-04-02 14:09:00,
2013-04-02 09:14:00,27.7,-10.4,30.27,North,0,0.0,0.0,18,0.00,CLR,OVC,0.00,WeatherDisplay:10.37,2013-04-02 14:14:00,
2013-04-02 09:19:00,28.0,-6.0,30.27,North,0,0.0,0.0,22,0.00,CLR,OVC,0.00,WeatherDisplay:10.37,2013-04-02 14:19:00,
2013-04-02 09:24:00,28.4,-4.8,30.27,North,0,0.0,0.0,23,0.00,CLR,OVC,0.00,WeatherDisplay:10.37,2013-04-02 14:24:00,
2013-04-02 09:29:00,28.8,2.6,30.27,North,0,0.0,0.0,32,0.00,CLR,OVC,0.00,WeatherDisplay:10.37,2013-04-02 14:29:00,
2013-04-02 09:34:00,29.1,4.8,30.27,North,0,0.0,0.0,35,0.00,CLR,OVC,0.00,WeatherDisplay:10.37,2013-04-02 14:34:00,
2013-04-02 09:39:00,29.3,7.4,30.27,North,0,0.0,0.0,39,0.00,CLR,OVC,0.00,WeatherDisplay:10.37,2013-04-02 14:39:00,
2013-04-02 09:44:00,29.3,9.0,30.27,North,0,0.0,0.0,42,0.00,CLR,OVC,0.00,WeatherDisplay:10.37,2013-04-02 14:44:00,
2013-04-02 09:49:00,29.5,13.1,30.27,North,0,0.0,0.0,50,0.00,CLR,OVC,0.00,WeatherDisplay:10.37,2013-04-02 14:49:00,
2013-04-02 09:54:00,29.7,14.2,30.27,North,0,0.0,0.0,52,0.00,CLR,OVC,0.00,WeatherDisplay:10.37,2013-04-02 14:54:00,
2013-04-02 09:59:00,29.7,14.2,30.27,North,0,0.0,0.0,52,0.00,CLR,OVC,0.00,WeatherDisplay:10.37,2013-04-02 14:59:00,
2013-04-02 10:04:00,29.8,14.3,30.27,North,0,0.0,0.0,52,0.00,CLR,OVC,0.00,WeatherDisplay:10.37,2013-04-02 15:04:00,
2013-04-02 10:09:00,30.2,16.4,30.27,North,0,0.0,0.0,56,0.00,CLR,OVC,0.00,WeatherDisplay:10.37,2013-04-02 15:09:00,
2013-04-02 10:14:00,30.4,16.1,30.27,North,0,0.0,0.0,55,0.00,CLR,OVC,0.00,WeatherDisplay:10.37,2013-04-02 15:14:00,
2013-04-02 10:19:00,30.6,18.7,30.27,North,0,0.0,0.0,61,0.00,CLR,OVC,0.00,WeatherDisplay:10.37,2013-04-02 15:19:00,
2013-04-02 10:24:00,30.6,18.3,30.27,North,0,0.0,0.0,60,0.00,CLR,OVC,0.00,WeatherDisplay:10.37,2013-04-02 15:24:00,
2013-04-02 10:29:00,30.9,18.7,30.27,North,0,0.0,0.0,60,0.00,CLR,OVC,0.00,WeatherDisplay:10.37,2013-04-02 15:29:00,
2013-04-02 10:35:00,31.1,18.8,30.27,North,0,0.0,0.0,60,0.00,CLR,OVC,0.00,WeatherDisplay:10.37,2013-04-02 15:35:00,
2013-04-02 10:40:00,31.5,19.9,30.27,North,0,0.0,0.0,62,0.00,CLR,OVC,0.00,WeatherDisplay:10.37,2013-04-02 15:40:00,
2013-04-02 10:45:00,31.3,19.8,30.27,North,0,0.0,0.0,62,0.00,CLR,OVC,0.00,WeatherDisplay:10.37,2013-04-02 15:45:00,
2013-04-02 10:50:00,31.6,20.1,30.27,North,0,0.0,0.0,62,0.00,CLR,OVC,0.00,WeatherDisplay:10.37,2013-04-02 15:50:00,
2013-04-02 10:56:00,32.0,20.4,30.27,North,0,0.0,0.0,62,0.00,CLR,OVC,0.00,WeatherDisplay:10.37,2013-04-02 15:56:00,
2013-04-02 11:01:00,32.4,20.8,30.27,North,0,0.0,0.0,62,0.00,CLR,OVC,0.00,WeatherDisplay:10.37,2013-04-02 16:01:00,
2013-04-02 11:06:00,32.0,20.4,30.27,North,0,0.0,0.0,62,0.00,CLR,OVC,0.00,WeatherDisplay:10.37,2013-04-02 16:06:00,
2013-04-02 11:11:00,31.8,20.3,30.27,North,0,0.0,0.0,62,0.00,CLR,OVC,0.00,WeatherDisplay:10.37,2013-04-02 16:11:00,
2013-04-02 11:16:00,31.8,19.9,30.27,North,0,0.0,0.0,61,0.00,CLR,OVC,0.00,WeatherDisplay:10.37,2013-04-02 16:16:00,
2013-04-02 11:21:00,32.0,20.4,30.27,North,0,0.0,0.0,62,0.00,CLR,OVC,0.00,WeatherDisplay:10.37,2013-04-02 16:21:00,
2013-04-02 11:26:00,32.0,20.1,30.27,North,0,0.0,0.0,61,0.00,CLR,OVC,0.00,WeatherDisplay:10.37,2013-04-02 16:26:00,
2013-04-02 11:31:00,32.4,20.8,30.27,North,0,0.0,0.0,62,0.00,CLR,OVC,0.00,WeatherDisplay:10.37,2013-04-02 16:31:00,
2013-04-02 11:36:00,32.4,20.8,30.27,North,0,0.0,0.0,62,0.00,CLR,OVC,0.00,WeatherDisplay:10.37,2013-04-02 16:36:00,
2013-04-02 11:41:00,32.5,21.0,30.27,North,0,0.0,0.0,62,0.00,CLR,OVC,0.00,WeatherDisplay:10.37,2013-04-02 16:41:00,
2013-04-02 11:47:00,32.9,21.3,30.27,North,0,0.0,0.0,62,0.00,CLR,OVC,0.00,WeatherDisplay:10.37,2013-04-02 16:47:00,
2013-04-02 11:52:00,32.9,21.3,30.27,North,0,0.0,0.0,62,0.00,CLR,OVC,0.00,WeatherDisplay:10.37,2013-04-02 16:52:00,
2013-04-02 11:57:00,33.4,21.4,30.27,North,0,0.0,0.0,61,0.00,CLR,OVC,0.00,WeatherDisplay:10.37,2013-04-02 16:57:00,
2013-04-02 12:02:00,33.3,21.3,30.27,North,0,0.0,0.0,61,0.00,CLR,OVC,0.00,WeatherDisplay:10.37,2013-04-02 17:02:00,
2013-04-02 12:07:00,33.4,21.4,30.27,North,0,0.0,0.0,61,0.00,CLR,OVC,0.00,WeatherDisplay:10.37,2013-04-02 17:07:00,
2013-04-02 12:12:00,33.6,20.8,30.27,North,0,0.0,0.0,59,0.00,CLR,OVC,0.00,WeatherDisplay:10.37,2013-04-02 17:12:00,
2013-04-02 12:17:00,33.8,21.8,30.27,North,0,0.0,0.0,61,0.00,CLR,OVC,0.00,WeatherDisplay:10.37,2013-04-02 17:17:00,
2013-04-02 12:22:00,33.4,21.4,30.27,North,0,0.0,0.0,61,0.00,CLR,OVC,0.00,WeatherDisplay:10.37,2013-04-02 17:22:00,
2013-04-02 12:28:00,33.4,21.4,30.27,North,0,0.0,0.0,61,0.00,CLR,OVC,0.00,WeatherDisplay:10.37,2013-04-02 17:28:00,
2013-04-02 12:33:00,33.8,21.0,30.27,North,0,0.0,0.0,59,0.00,CLR,OVC,0.00,WeatherDisplay:10.37,2013-04-02 17:33:00,
2013-04-02 12:38:00,34.0,21.1,30.27,North,0,0.0,0.0,59,0.00,CLR,OVC,0.00,WeatherDisplay:10.37,2013-04-02 17:38:00,
2013-04-02 12:43:00,34.2,21.7,30.27,North,0,0.0,0.0,60,0.00,CLR,OVC,0.00,WeatherDisplay:10.37,2013-04-02 17:43:00,
2013-04-02 12:49:00,34.2,20.9,30.26,North,0,0.0,0.0,58,0.00,CLR,OVC,0.00,WeatherDisplay:10.37,2013-04-02 17:49:00,
2013-04-02 12:54:00,34.3,22.3,30.26,North,0,0.0,0.0,61,0.00,CLR,OVC,0.00,WeatherDisplay:10.37,2013-04-02 17:54:00,
2013-04-02 12:59:00,34.3,22.3,30.26,North,0,0.0,0.0,61,0.00,CLR,OVC,0.00,WeatherDisplay:10.37,2013-04-02 17:59:00,
2013-04-02 13:04:00,34.7,21.8,30.26,North,0,0.0,0.0,59,0.00,CLR,OVC,0.00,WeatherDisplay:10.37,2013-04-02 18:04:00,
2013-04-02 13:09:00,34.9,22.4,30.26,North,0,0.0,0.0,60,0.00,CLR,OVC,0.00,WeatherDisplay:10.37,2013-04-02 18:09:00,
2013-04-02 13:14:00,35.1,22.2,30.26,North,0,0.0,0.0,59,0.00,CLR,OVC,0.00,WeatherDisplay:10.37,2013-04-02 18:14:00,
2013-04-02 13:19:00,35.4,22.9,30.26,North,0,0.0,0.0,60,0.00,CLR,OVC,0.00,WeatherDisplay:10.37,2013-04-02 18:19:00,
2013-04-02 13:24:00,35.6,23.1,30.26,North,0,0.0,0.0,60,0.00,CLR,OVC,0.00,WeatherDisplay:10.37,2013-04-02 18:24:00,
2013-04-02 13:29:00,35.1,22.2,30.26,North,0,0.0,0.0,59,0.00,CLR,OVC,0.00,WeatherDisplay:10.37,2013-04-02 18:29:00,
2013-04-02 13:34:00,35.6,23.1,30.26,North,0,0.0,0.0,60,0.00,CLR,OVC,0.00,WeatherDisplay:10.37,2013-04-02 18:34:00,
2013-04-02 13:40:00,35.6,23.1,30.26,North,0,0.0,0.0,60,0.00,CLR,OVC,0.00,WeatherDisplay:10.37,2013-04-02 18:40:00,
2013-04-02 13:45:00,35.6,23.1,30.26,North,0,0.0,0.0,60,0.00,CLR,OVC,0.00,WeatherDisplay:10.37,2013-04-02 18:45:00,
2013-04-02 13:50:00,35.2,22.3,30.26,North,0,0.0,0.0,59,0.00,CLR,OVC,0.00,WeatherDisplay:10.37,2013-04-02 18:50:00,
2013-04-02 13:55:00,35.4,22.5,30.26,North,0,0.0,0.0,59,0.00,CLR,OVC,0.00,WeatherDisplay:10.37,2013-04-02 18:55:00,
2013-04-02 14:00:00,35.8,22.8,30.26,North,0,0.0,0.0,59,0.00,CLR,OVC,0.00,WeatherDisplay:10.37,2013-04-02 19:00:00,
2013-04-02 14:05:00,35.4,22.5,30.26,North,0,0.0,0.0,59,0.00,CLR,OVC,0.00,WeatherDisplay:10.37,2013-04-02 19:05:00,
2013-04-02 14:10:00,35.2,22.7,30.26,North,0,0.0,0.0,60,0.00,CLR,OVC,0.00,WeatherDisplay:10.37,2013-04-02 19:10:00,
2013-04-02 14:15:00,35.6,23.1,30.26,North,0,0.0,0.0,60,0.00,CLR,OVC,0.00,WeatherDisplay:10.37,2013-04-02 19:15:00,
2013-04-02 14:20:00,35.6,22.7,30.26,North,0,0.0,0.0,59,0.00,CLR,OVC,0.00,WeatherDisplay:10.37,2013-04-02 19:20:00,
2013-04-02 14:25:00,35.6,23.1,30.26,North,0,0.0,0.0,60,0.00,CLR,OVC,0.00,WeatherDisplay:10.37,2013-04-02 19:25:00,
2013-04-02 14:30:00,36.3,23.8,30.26,North,0,0.0,0.0,60,0.00,CLR,OVC,0.00,WeatherDisplay:10.37,2013-04-02 19:30:00,
2013-04-02 14:35:00,36.7,23.7,30.26,North,0,0.0,0.0,59,0.00,CLR,OVC,0.00,WeatherDisplay:10.37,2013-04-02 19:35:00,
2013-04-02 14:40:00,36.7,23.3,30.26,North,0,0.0,0.0,58,0.00,CLR,OVC,0.00,WeatherDisplay:10.37,2013-04-02 19:40:00,
2013-04-02 14:46:00,36.9,23.0,30.26,North,0,0.0,0.0,57,0.00,CLR,OVC,0.00,WeatherDisplay:10.37,2013-04-02 19:46:00,
2013-04-02 14:51:00,36.9,23.9,30.26,North,0,0.0,0.0,59,0.00,CLR,OVC,0.00,WeatherDisplay:10.37,2013-04-02 19:51:00,
2013-04-02 14:56:00,37.0,23.6,30.26,North,0,0.0,0.0,58,0.00,CLR,OVC,0.00,WeatherDisplay:10.37,2013-04-02 19:56:00,
2013-04-02 15:01:00,36.3,23.8,30.26,North,0,0.0,0.0,60,0.00,CLR,OVC,0.00,WeatherDisplay:10.37,2013-04-02 20:01:00,
2013-04-02 15:06:00,35.8,22.8,30.26,North,0,0.0,0.0,59,0.00,CLR,OVC,0.00,WeatherDisplay:10.37,2013-04-02 20:06:00,
2013-04-02 15:11:00,35.2,22.7,30.26,North,0,0.0,0.0,60,0.00,CLR,OVC,0.00,WeatherDisplay:10.37,2013-04-02 20:11:00,
2013-04-02 15:17:00,35.6,23.1,30.26,North,0,0.0,0.0,60,0.00,CLR,OVC,0.00,WeatherDisplay:10.37,2013-04-02 20:17:00,
2013-04-02 15:22:00,35.6,23.1,30.26,North,0,0.0,0.0,60,0.00,CLR,OVC,0.00,WeatherDisplay:10.37,2013-04-02 20:22:00,
2013-04-02 15:27:00,36.0,23.8,30.25,North,0,0.0,0.0,61,0.00,CLR,OVC,0.00,WeatherDisplay:10.37,2013-04-02 20:27:00,
2013-04-02 15:32:00,35.8,22.8,30.25,North,0,0.0,0.0,59,0.00,CLR,OVC,0.00,WeatherDisplay:10.37,2013-04-02 20:32:00,
2013-04-02 15:37:00,35.2,22.7,30.25,North,0,0.0,0.0,60,0.00,CLR,OVC,0.00,WeatherDisplay:10.37,2013-04-02 20:37:00,
2013-04-02 15:43:00,34.5,22.1,30.25,North,0,0.0,0.0,60,0.00,CLR,OVC,0.00,WeatherDisplay:10.37,2013-04-02 20:43:00,
2013-04-02 15:48:00,34.9,22.4,30.25,North,0,0.0,0.0,60,0.00,CLR,OVC,0.00,WeatherDisplay:10.37,2013-04-02 20:48:00,
2013-04-02 15:53:00,35.4,22.9,30.25,North,0,0.0,0.0,60,0.00,CLR,OVC,0.00,WeatherDisplay:10.37,2013-04-02 20:53:00,
2013-04-02 15:58:00,35.6,22.7,30.25,North,0,0.0,0.0,59,0.00,CLR,OVC,0.00,WeatherDisplay:10.37,2013-04-02 20:58:00,
2013-04-02 16:03:00,36.0,23.4,30.25,North,0,0.0,0.0,60,0.00,CLR,OVC,0.00,WeatherDisplay:10.37,2013-04-02 21:03:00,
2013-04-02 16:09:00,36.3,23.8,30.25,North,0,0.0,0.0,60,0.00,CLR,OVC,0.00,WeatherDisplay:10.37,2013-04-02 21:09:00,
2013-04-02 16:14:00,36.3,23.3,30.25,North,0,0.0,0.0,59,0.00,CLR,OVC,0.00,WeatherDisplay:10.37,2013-04-02 21:14:00,
2013-04-02 16:19:00,35.8,23.2,30.25,North,0,0.0,0.0,60,0.00,CLR,OVC,0.00,WeatherDisplay:10.37,2013-04-02 21:19:00,
2013-04-02 16:24:00,35.8,23.2,30.25,North,0,0.0,0.0,60,0.00,CLR,OVC,0.00,WeatherDisplay:10.37,2013-04-02 21:24:00,
2013-04-02 16:29:00,36.0,23.0,30.25,North,0,0.0,0.0,59,0.00,CLR,OVC,0.00,WeatherDisplay:10.37,2013-04-02 21:29:00,
2013-04-02 16:34:00,36.0,22.6,30.25,North,0,0.0,0.0,58,0.00,CLR,OVC,0.00,WeatherDisplay:10.37,2013-04-02 21:34:00,
2013-04-02 16:39:00,35.4,22.5,30.26,North,0,0.0,0.0,59,0.00,CLR,OVC,0.00,WeatherDisplay:10.37,2013-04-02 21:39:00,
2013-04-02 16:45:00,35.4,22.9,30.26,North,0,0.0,0.0,60,0.00,CLR,OVC,0.00,WeatherDisplay:10.37,2013-04-02 21:45:00,
2013-04-02 16:50:00,35.4,22.5,30.26,North,0,0.0,0.0,59,0.00,CLR,OVC,0.00,WeatherDisplay:10.37,2013-04-02 21:50:00,
2013-04-02 16:55:00,36.0,23.0,30.26,North,0,0.0,0.0,59,0.00,CLR,OVC,0.00,WeatherDisplay:10.37,2013-04-02 21:55:00,
2013-04-02 17:01:00,35.8,23.2,30.26,North,0,0.0,0.0,60,0.00,CLR,OVC,0.00,WeatherDisplay:10.37,2013-04-02 22:01:00,
2013-04-02 17:06:00,36.1,23.6,30.26,North,0,0.0,0.0,60,0.00,CLR,OVC,0.00,WeatherDisplay:10.37,2013-04-02 22:06:00,
2013-04-02 17:12:00,35.6,23.1,30.26,North,0,0.0,0.0,60,0.00,CLR,OVC,0.00,WeatherDisplay:10.37,2013-04-02 22:12:00,
2013-04-02 17:17:00,35.6,23.1,30.26,North,0,0.0,0.0,60,0.00,CLR,OVC,0.00,WeatherDisplay:10.37,2013-04-02 22:17:00,
2013-04-02 17:22:00,36.0,23.4,30.26,North,0,0.0,0.0,60,0.00,CLR,OVC,0.00,WeatherDisplay:10.37,2013-04-02 22:22:00,
2013-04-02 17:27:00,35.8,23.2,30.26,North,0,0.0,0.0,60,0.00,CLR,OVC,0.00,WeatherDisplay:10.37,2013-04-02 22:27:00,
2013-04-02 17:32:00,36.1,23.2,30.26,North,0,0.0,0.0,59,0.00,CLR,OVC,0.00,WeatherDisplay:10.37,2013-04-02 22:32:00,
2013-04-02 17:37:00,36.1,23.2,30.26,North,0,0.0,0.0,59,0.00,CLR,OVC,0.00,WeatherDisplay:10.37,2013-04-02 22:37:00,
2013-04-02 17:42:00,36.0,23.4,30.26,North,0,0.0,0.0,60,0.00,CLR,OVC,0.00,WeatherDisplay:10.37,2013-04-02 22:42:00,
2013-04-02 17:48:00,36.0,23.4,30.26,North,0,0.0,0.0,60,0.00,CLR,OVC,0.00,WeatherDisplay:10.37,2013-04-02 22:48:00,
2013-04-02 17:53:00,36.0,23.4,30.27,North,0,0.0,0.0,60,0.00,CLR,OVC,0.00,WeatherDisplay:10.37,2013-04-02 22:53:00,
2013-04-02 17:58:00,35.8,22.8,30.27,North,0,0.0,0.0,59,0.00,CLR,OVC,0.00,WeatherDisplay:10.37,2013-04-02 22:58:00,
2013-04-02 18:03:00,35.6,23.1,30.26,North,0,0.0,0.0,60,0.00,CLR,OVC,0.00,WeatherDisplay:10.37,2013-04-02 23:03:00,
2013-04-02 18:08:00,35.4,22.5,30.27,North,0,0.0,0.0,59,0.00,CLR,OVC,0.00,WeatherDisplay:10.37,2013-04-02 23:08:00,
2013-04-02 18:13:00,35.6,22.7,30.27,North,0,0.0,0.0,59,0.00,CLR,OVC,0.00,WeatherDisplay:10.37,2013-04-02 23:13:00,
2013-04-02 18:18:00,35.6,23.1,30.27,North,0,0.0,0.0,60,0.00,CLR,OVC,0.00,WeatherDisplay:10.37,2013-04-02 23:18:00,
2013-04-02 18:23:00,35.6,23.1,30.27,North,0,0.0,0.0,60,0.00,CLR,OVC,0.00,WeatherDisplay:10.37,2013-04-02 23:23:00,
2013-04-02 18:28:00,35.2,22.7,30.27,North,0,0.0,0.0,60,0.00,CLR,OVC,0.00,WeatherDisplay:10.37,2013-04-02 23:28:00,
2013-04-02 18:33:00,34.7,22.6,30.27,North,0,0.0,0.0,61,0.00,CLR,OVC,0.00,WeatherDisplay:10.37,2013-04-02 23:33:00,
2013-04-02 18:38:00,34.2,22.1,30.27,North,0,0.0,0.0,61,0.00,CLR,OVC,0.00,WeatherDisplay:10.37,2013-04-02 23:38:00,
2013-04-02 18:43:00,34.0,21.9,30.27,North,0,0.0,0.0,61,0.00,CLR,OVC,0.00,WeatherDisplay:10.37,2013-04-02 23:43:00,
2013-04-02 18:48:00,34.0,22.3,30.27,North,0,0.0,0.0,62,0.00,CLR,OVC,0.00,WeatherDisplay:10.37,2013-04-02 23:48:00,
2013-04-02 18:53:00,34.0,22.3,30.27,North,0,0.0,0.0,62,0.00,CLR,OVC,0.00,WeatherDisplay:10.37,2013-04-02 23:53:00,
2013-04-02 18:58:00,33.8,22.1,30.27,North,0,0.0,0.0,62,0.00,CLR,OVC,0.00,WeatherDisplay:10.37,2013-04-02 23:58:00,
2013-04-02 19:03:00,33.4,21.4,30.27,North,0,0.0,0.0,61,0.00,CLR,OVC,0.00,WeatherDisplay:10.37,2013-04-03 00:03:00,
2013-04-02 19:08:00,33.1,21.5,30.27,North,0,0.0,0.0,62,0.00,CLR,OVC,0.00,WeatherDisplay:10.37,2013-04-03 00:08:00,
2013-04-02 19:13:00,33.1,21.5,30.27,North,0,0.0,0.0,62,0.00,CLR,OVC,0.00,WeatherDisplay:10.37,2013-04-03 00:13:00,
2013-04-02 19:18:00,33.1,21.1,30.27,North,0,0.0,0.0,61,0.00,CLR,OVC,0.00,WeatherDisplay:10.37,2013-04-03 00:18:00,
2013-04-02 19:23:00,32.7,21.1,30.27,North,0,0.0,0.0,62,0.00,CLR,OVC,0.00,WeatherDisplay:10.37,2013-04-03 00:23:00,
2013-04-02 19:29:00,32.7,21.1,30.27,North,0,0.0,0.0,62,0.00,CLR,OVC,0.00,WeatherDisplay:10.37,2013-04-03 00:29:00,
2013-04-02 19:34:00,32.5,21.0,30.27,North,0,0.0,0.0,62,0.00,CLR,OVC,0.00,WeatherDisplay:10.37,2013-04-03 00:34:00,
2013-04-02 19:39:00,32.4,20.4,30.27,North,0,0.0,0.0,61,0.00,CLR,OVC,0.00,WeatherDisplay:10.37,2013-04-03 00:39:00,
2013-04-02 19:44:00,32.0,20.4,30.27,North,0,0.0,0.0,62,0.00,CLR,OVC,0.00,WeatherDisplay:10.37,2013-04-03 00:44:00,
2013-04-02 19:50:00,32.0,20.1,30.27,North,0,0.0,0.0,61,0.00,CLR,OVC,0.00,WeatherDisplay:10.37,2013-04-03 00:50:00,
2013-04-02 19:55:00,31.8,19.9,30.27,North,0,0.0,0.0,61,0.00,CLR,OVC,0.00,WeatherDisplay:10.37,2013-04-03 00:55:00,
2013-04-02 20:00:00,31.5,19.5,30.28,North,0,0.0,0.0,61,0.00,CLR,OVC,0.00,WeatherDisplay:10.37,2013-04-03 01:00:00,
2013-04-02 20:05:00,31.5,19.2,30.27,North,0,0.0,0.0,60,0.00,CLR,OVC,0.00,WeatherDisplay:10.37,2013-04-03 01:05:00,
2013-04-02 20:10:00,31.3,19.0,30.28,North,0,0.0,0.0,60,0.00,CLR,OVC,0.00,WeatherDisplay:10.37,2013-04-03 01:10:00,
2013-04-02 20:15:00,31.1,18.8,30.28,North,0,0.0,0.0,60,0.00,CLR,OVC,0.00,WeatherDisplay:10.37,2013-04-03 01:15:00,
2013-04-02 20:21:00,31.1,18.8,30.28,North,0,0.0,0.0,60,0.00,CLR,OVC,0.00,WeatherDisplay:10.37,2013-04-03 01:21:00,
2013-04-02 20:26:00,30.9,18.7,30.28,North,0,0.0,0.0,60,0.00,CLR,OVC,0.00,WeatherDisplay:10.37,2013-04-03 01:26:00,
2013-04-02 20:31:00,30.9,18.3,30.28,North,0,0.0,0.0,59,0.00,CLR,OVC,0.00,WeatherDisplay:10.37,2013-04-03 01:31:00,
2013-04-02 20:36:00,30.7,18.1,30.28,North,0,0.0,0.0,59,0.00,CLR,OVC,0.00,WeatherDisplay:10.37,2013-04-03 01:36:00,
2013-04-02 20:42:00,30.6,17.5,30.29,North,0,0.0,0.0,58,0.00,CLR,OVC,0.00,WeatherDisplay:10.37,2013-04-03 01:42:00,
2013-04-02 20:47:00,30.6,17.9,30.29,North,0,0.0,0.0,59,0.00,CLR,OVC,0.00,WeatherDisplay:10.37,2013-04-03 01:47:00,
2013-04-02 20:52:00,30.6,17.5,30.29,North,0,0.0,0.0,58,0.00,CLR,OVC,0.00,WeatherDisplay:10.37,2013-04-03 01:52:00,
2013-04-02 20:57:00,30.4,16.9,30.29,North,0,0.0,0.0,57,0.00,CLR,OVC,0.00,WeatherDisplay:10.37,2013-04-03 01:57:00,
2013-04-02 21:02:00,30.0,16.2,30.29,North,0,0.0,0.0,56,0.00,CLR,OVC,0.00,WeatherDisplay:10.37,2013-04-03 02:02:00,
2013-04-02 21:07:00,29.8,16.0,30.29,North,0,0.0,0.0,56,0.00,CLR,OVC,0.00,WeatherDisplay:10.37,2013-04-03 02:07:00,
2013-04-02 21:13:00,29.7,15.9,30.29,North,0,0.0,0.0,56,0.00,CLR,OVC,0.00,WeatherDisplay:10.37,2013-04-03 02:13:00,
2013-04-02 21:18:00,29.5,15.7,30.29,North,0,0.0,0.0,56,0.00,CLR,OVC,0.00,WeatherDisplay:10.37,2013-04-03 02:18:00,
2013-04-02 21:23:00,29.5,14.9,30.29,North,0,0.0,0.0,54,0.00,CLR,OVC,0.00,WeatherDisplay:10.37,2013-04-03 02:23:00,
2013-04-02 21:28:00,29.3,13.8,30.30,North,0,0.0,0.0,52,0.00,CLR,OVC,0.00,WeatherDisplay:10.37,2013-04-03 02:28:00,
2013-04-02 21:33:00,29.3,14.3,30.30,North,0,0.0,0.0,53,0.00,CLR,OVC,0.00,WeatherDisplay:10.37,2013-04-03 02:33:00,
2013-04-02 21:39:00,29.5,15.3,30.30,North,0,0.0,0.0,55,0.00,CLR,OVC,0.00,WeatherDisplay:10.37,2013-04-03 02:39:00,
2013-04-02 21:44:00,29.7,15.9,30.30,North,0,0.0,0.0,56,0.00,CLR,OVC,0.00,WeatherDisplay:10.37,2013-04-03 02:44:00,
2013-04-02 21:49:00,29.7,15.9,30.30,North,0,0.0,0.0,56,0.00,CLR,OVC,0.00,WeatherDisplay:10.37,2013-04-03 02:49:00,
2013-04-02 21:54:00,29.5,15.3,30.30,North,0,0.0,0.0,55,0.00,CLR,OVC,0.00,WeatherDisplay:10.37,2013-04-03 02:54:00,
2013-04-02 21:59:00,29.3,15.1,30.30,North,0,0.0,0.0,55,0.00,CLR,OVC,0.00,WeatherDisplay:10.37,2013-04-03 02:59:00,
2013-04-02 22:04:00,29.3,14.7,30.30,North,0,0.0,0.0,54,0.00,CLR,OVC,0.00,WeatherDisplay:10.37,2013-04-03 03:04:00,
2013-04-02 22:09:00,29.1,14.5,30.30,North,0,0.0,0.0,54,0.00,CLR,OVC,0.00,WeatherDisplay:10.37,2013-04-03 03:09:00,
2013-04-02 22:14:00,29.1,14.5,30.30,North,0,0.0,0.0,54,0.00,CLR,OVC,0.00,WeatherDisplay:10.37,2013-04-03 03:14:00,
2013-04-02 22:19:00,29.1,14.5,30.30,North,0,0.0,0.0,54,0.00,CLR,OVC,0.00,WeatherDisplay:10.37,2013-04-03 03:19:00,
2013-04-02 22:24:00,29.1,14.9,30.30,North,0,0.0,0.0,55,0.00,CLR,OVC,0.00,WeatherDisplay:10.37,2013-04-03 03:24:00,
2013-04-02 22:29:00,29.3,15.5,30.30,North,0,0.0,0.0,56,0.00,CLR,OVC,0.00,WeatherDisplay:10.37,2013-04-03 03:29:00,
2013-04-02 22:35:00,29.3,15.5,30.30,North,0,0.0,0.0,56,0.00,CLR,OVC,0.00,WeatherDisplay:10.37,2013-04-03 03:35:00,
2013-04-02 22:40:00,29.3,15.5,30.30,North,0,0.0,0.0,56,0.00,CLR,OVC,0.00,WeatherDisplay:10.37,2013-04-03 03:40:00,
2013-04-02 22:45:00,29.1,14.9,30.30,North,0,0.0,0.0,55,0.00,CLR,OVC,0.00,WeatherDisplay:10.37,2013-04-03 03:45:00,
2013-04-02 22:50:00,29.1,15.4,30.30,North,0,0.0,0.0,56,0.00,CLR,OVC,0.00,WeatherDisplay:10.37,2013-04-03 03:50:00,
2013-04-02 22:55:00,28.9,12.1,30.30,North,0,0.0,0.0,49,0.00,CLR,OVC,0.00,WeatherDisplay:10.37,2013-04-03 03:55:00,
2013-04-02 23:00:00,28.9,10.7,30.30,North,0,0.0,0.0,46,0.00,CLR,OVC,0.00,WeatherDisplay:10.37,2013-04-03 04:00:00,
2013-04-02 23:05:00,28.9,10.2,30.30,North,0,0.0,0.0,45,0.00,CLR,OVC,0.00,WeatherDisplay:10.37,2013-04-03 04:05:00,
2013-04-02 23:10:00,28.8,9.0,30.30,North,0,0.0,0.0,43,0.00,CLR,OVC,0.00,WeatherDisplay:10.37,2013-04-03 04:10:00,
2013-04-02 23:15:00,28.8,9.0,30.30,North,0,0.0,0.0,43,0.00,CLR,OVC,0.00,WeatherDisplay:10.37,2013-04-03 04:15:00,
2013-04-02 23:20:00,28.9,9.7,30.30,North,0,0.0,0.0,44,0.00,CLR,OVC,0.00,WeatherDisplay:10.37,2013-04-03 04:20:00,
2013-04-02 23:25:00,28.9,10.2,30.30,North,0,0.0,0.0,45,0.00,CLR,OVC,0.00,WeatherDisplay:10.37,2013-04-03 04:25:00,
2013-04-02 23:30:00,28.6,8.9,30.30,North,0,0.0,0.0,43,0.00,CLR,OVC,0.00,WeatherDisplay:10.37,2013-04-03 04:30:00,
2013-04-02 23:36:00,28.4,9.2,30.30,North,0,0.0,0.0,44,0.00,CLR,OVC,0.00,WeatherDisplay:10.37,2013-04-03 04:36:00,
2013-04-02 23:41:00,28.2,10.1,30.30,North,0,0.0,0.0,46,0.00,CLR,OVC,0.00,WeatherDisplay:10.37,2013-04-03 04:41:00,
2013-04-02 23:46:00,28.2,10.5,30.30,North,0,0.0,0.0,47,0.00,CLR,OVC,0.00,WeatherDisplay:10.37,2013-04-03 04:46:00,
2013-04-02 23:51:00,28.2,11.0,30.30,North,0,0.0,0.0,48,0.00,CLR,OVC,0.00,WeatherDisplay:10.37,2013-04-03 04:51:00,
2013-04-02 23:56:00,28.0,9.9,30.30,North,0,0.0,0.0,46,0.00,CLR,OVC,0.00,WeatherDisplay:10.37,2013-04-03 04:56:00,